Time;durP1;ratioP1;P1;durP2;ratioP2;P2;SDS_P1;SDS_P2;PMS_P1;PMS_P2;Temp;Humidity;BMP_temperature;BMP_pressure;BME280_temperature;BME280_humidity;BME280_pressure;Samples;Min_cycle;Max_cycle;Signal;HPM_P1;HPM_P2
2023/06/23 00:02:16;;;;;;;10.40;7.90;;;26.80;99.90;;;;;;5096654;27;20197;-75
2023/06/23 00:04:43;;;;;;;9.98;7.95;;;26.80;99.90;;;;;;5097746;27;20307;-75
2023/06/23 00:07:10;;;;;;;8.38;7.45;;;26.80;99.90;;;;;;5091709;27;20287;-75
2023/06/23 00:09:38;;;;;;;7.93;6.50;;;26.70;99.90;;;;;;5098839;27;20867;-76
2023/06/23 00:12:07;;;;;;;8.27;7.45;;;26.50;99.90;;;;;;5093527;27;20274;-76
2023/06/23 00:14:34;;;;;;;11.77;7.70;;;26.30;99.90;;;;;;5097294;27;20196;-75
2023/06/23 00:17:02;;;;;;;7.70;6.95;;;26.10;99.90;;;;;;5094851;27;20686;-75
2023/06/23 00:19:32;;;;;;;7.60;6.72;;;26.00;99.90;;;;;;5096235;27;20899;-75
2023/06/23 00:22:00;;;;;;;7.43;5.70;;;25.90;99.90;;;;;;5091516;27;20216;-75
2023/06/23 00:24:27;;;;;;;8.82;6.32;;;25.90;99.90;;;;;;5095448;27;20277;-75
2023/06/23 00:26:54;;;;;;;9.52;7.90;;;26.00;99.90;;;;;;5098020;27;20211;-75
2023/06/23 00:29:21;;;;;;;9.18;7.07;;;26.10;99.90;;;;;;5095320;27;20286;-76
2023/06/23 00:31:49;;;;;;;8.88;7.28;;;26.20;99.90;;;;;;5097599;27;20301;-75
2023/06/23 00:34:16;;;;;;;13.43;8.40;;;26.20;99.90;;;;;;5097068;27;20211;-76
2023/06/23 00:36:44;;;;;;;10.25;9.15;;;26.10;99.90;;;;;;5101068;27;20730;-75
2023/06/23 00:39:13;;;;;;;13.45;10.15;;;25.80;99.90;;;;;;5098033;27;20225;-75
2023/06/23 00:41:40;;;;;;;11.45;9.38;;;25.60;99.90;;;;;;5097875;27;20236;-76
2023/06/23 00:44:08;;;;;;;9.57;8.57;;;25.50;99.90;;;;;;5101370;27;21046;-75
2023/06/23 00:46:35;;;;;;;10.63;8.70;;;25.40;99.90;;;;;;5102327;27;20208;-76
2023/06/23 00:49:03;;;;;;;10.48;8.43;;;25.30;99.90;;;;;;5099328;27;20312;-75
2023/06/23 00:51:31;;;;;;;10.30;9.30;;;25.20;99.90;;;;;;5098910;27;20207;-75
2023/06/23 00:54:00;;;;;;;10.60;9.13;;;25.20;99.90;;;;;;5101541;27;20193;-76
2023/06/23 00:56:29;;;;;;;8.18;7.40;;;25.10;99.90;;;;;;5097557;27;20682;-75
2023/06/23 00:58:56;;;;;;;9.23;8.27;;;25.10;99.90;;;;;;5096836;27;20227;-75
2023/06/23 01:01:23;;;;;;;12.07;8.73;;;25.20;99.90;;;;;;5099433;27;20861;-76
2023/06/23 01:03:51;;;;;;;8.40;7.50;;;25.20;99.90;;;;;;5099297;27;20224;-75
2023/06/23 01:06:37;;;;;;;8.00;7.20;;;25.20;99.90;;;;;;5100729;27;20205;-75
2023/06/23 01:09:14;;;;;;;9.63;8.18;;;25.20;99.90;;;;;;5100083;27;20240;-75
2023/06/23 01:11:49;;;;;;;8.32;6.85;;;25.30;99.90;;;;;;5099838;27;20777;-76
2023/06/23 01:14:22;;;;;;;6.97;6.38;;;25.30;99.90;;;;;;5100623;27;20273;-76
2023/06/23 01:16:56;;;;;;;8.10;6.60;;;25.40;99.90;;;;;;5095681;28;20221;-75
2023/06/23 01:19:41;;;;;;;7.30;6.55;;;25.50;99.90;;;;;;5098468;27;20232;-76
2023/06/23 01:22:19;;;;;;;7.45;6.40;;;25.50;99.90;;;;;;5096491;27;20302;-76
2023/06/23 01:24:58;;;;;;;8.15;6.32;;;25.60;99.90;;;;;;5094451;27;20985;-75
2023/06/23 01:28:08;;;;;;;11.45;7.38;;;25.60;99.90;;;;;;5095706;27;20286;-75
2023/06/23 01:30:40;;;;;;;9.52;6.57;;;25.70;99.90;;;;;;5099872;27;20201;-76
2023/06/23 01:33:12;;;;;;;10.52;8.48;;;25.80;99.90;;;;;;5094978;27;20205;-75
2023/06/23 01:35:44;;;;;;;8.10;6.90;;;25.70;99.90;;;;;;5103899;27;20243;-76
2023/06/23 01:38:18;;;;;;;9.57;7.53;;;25.40;99.90;;;;;;5113894;27;20619;-75
2023/06/23 01:40:50;;;;;;;7.60;6.90;;;25.20;99.90;;;;;;5097941;27;20338;-75
2023/06/23 01:43:20;;;;;;;7.28;6.57;;;25.10;99.90;;;;;;5097102;27;20227;-75
2023/06/23 01:45:55;;;;;;;7.70;6.10;;;25.00;99.90;;;;;;5100917;27;20200;-74
2023/06/23 01:48:23;;;;;;;8.05;6.55;;;25.00;99.90;;;;;;5097173;27;20396;-75
2023/06/23 01:50:52;;;;;;;7.38;6.72;;;25.10;99.90;;;;;;5097925;27;20197;-75
2023/06/23 01:53:20;;;;;;;8.45;7.65;;;25.10;99.90;;;;;;5098374;27;20188;-75
2023/06/23 01:55:50;;;;;;;7.65;6.75;;;25.00;99.90;;;;;;5097964;27;20287;-76
2023/06/23 01:58:18;;;;;;;8.02;7.22;;;25.00;99.90;;;;;;5100087;27;20268;-76
2023/06/23 02:00:46;;;;;;;7.80;7.10;;;25.00;99.90;;;;;;5096324;27;20255;-75
2023/06/23 02:03:15;;;;;;;8.07;7.20;;;24.90;99.90;;;;;;5097535;27;20212;-76
2023/06/23 02:05:45;;;;;;;8.18;7.05;;;25.00;99.90;;;;;;5100416;27;20766;-75
2023/06/23 02:08:14;;;;;;;6.95;6.30;;;25.00;99.90;;;;;;5098106;27;20205;-76
2023/06/23 02:10:42;;;;;;;11.35;7.45;;;25.00;99.90;;;;;;5099344;27;20778;-75
2023/06/23 02:13:11;;;;;;;7.68;6.50;;;24.90;99.90;;;;;;5099310;28;20280;-76
2023/06/23 02:15:40;;;;;;;7.63;6.65;;;24.80;99.90;;;;;;5097730;28;20208;-75
2023/06/23 02:18:10;;;;;;;6.85;6.10;;;24.80;99.90;;;;;;5100594;27;20223;-75
2023/06/23 02:20:40;;;;;;;7.35;6.65;;;24.80;99.90;;;;;;5099586;28;20277;-75
2023/06/23 02:23:07;;;;;;;9.00;7.25;;;24.80;99.90;;;;;;5094632;28;20250;-75
2023/06/23 02:25:36;;;;;;;9.70;7.85;;;24.80;99.90;;;;;;5099571;28;20269;-76
2023/06/23 02:28:03;;;;;;;8.05;7.32;;;24.70;99.90;;;;;;5104624;28;20291;-76
2023/06/23 02:30:31;;;;;;;8.25;6.55;;;24.60;99.90;;;;;;5097359;28;20298;-75
2023/06/23 02:32:58;;;;;;;6.85;6.15;;;24.60;99.90;;;;;;5098417;28;20237;-75
2023/06/23 02:35:25;;;;;;;7.90;7.10;;;24.60;99.90;;;;;;5097792;28;20308;-76
2023/06/23 02:37:59;;;;;;;7.65;6.38;;;24.70;99.90;;;;;;5100811;28;20200;-75
2023/06/23 02:40:28;;;;;;;7.22;6.55;;;24.70;99.90;;;;;;5100657;28;20319;-75
2023/06/23 02:43:03;;;;;;;7.38;6.07;;;24.70;99.90;;;;;;5098515;28;20209;-75
2023/06/23 02:45:32;;;;;;;7.03;6.35;;;24.70;99.90;;;;;;5095353;28;20244;-75
2023/06/23 02:48:01;;;;;;;7.43;6.13;;;24.60;99.90;;;;;;5096836;28;20276;-76
2023/06/23 02:50:32;;;;;;;6.78;6.07;;;24.70;99.90;;;;;;5100357;28;20262;-75
2023/06/23 02:53:05;;;;;;;7.13;6.40;;;24.80;99.90;;;;;;5095735;27;20233;-77
2023/06/23 02:55:38;;;;;;;7.32;6.38;;;24.80;99.90;;;;;;5097783;28;20763;-75
2023/06/23 02:58:08;;;;;;;6.80;6.07;;;24.80;99.90;;;;;;5096702;28;20302;-76
2023/06/23 03:00:37;;;;;;;6.57;6.07;;;24.80;99.90;;;;;;5095807;28;20213;-75
2023/06/23 03:03:09;;;;;;;6.47;5.88;;;24.80;99.90;;;;;;5100406;27;20714;-76
2023/06/23 03:05:36;;;;;;;6.90;6.10;;;24.80;99.90;;;;;;5100150;27;20278;-75
2023/06/23 03:08:06;;;;;;;6.75;6.13;;;24.80;99.90;;;;;;5101182;27;20210;-76
2023/06/23 03:10:34;;;;;;;6.55;5.95;;;24.70;99.90;;;;;;5099278;27;20281;-76
2023/06/23 03:13:01;;;;;;;6.90;6.18;;;24.60;99.90;;;;;;5099683;27;20206;-75
2023/06/23 03:15:29;;;;;;;8.15;7.35;;;24.60;99.90;;;;;;5101877;27;20205;-75
2023/06/23 03:18:01;;;;;;;7.90;7.07;;;24.60;99.90;;;;;;5106133;27;20237;-75
2023/06/23 03:20:34;;;;;;;7.35;6.65;;;24.50;99.90;;;;;;5095961;27;20284;-76
2023/06/23 03:23:05;;;;;;;8.77;7.90;;;24.20;99.90;;;;;;5098639;27;20292;-76
2023/06/23 03:25:33;;;;;;;8.15;7.35;;;24.00;99.90;;;;;;5101747;27;20224;-76
2023/06/23 03:28:03;;;;;;;7.22;6.50;;;23.90;99.90;;;;;;5102435;27;20347;-76
2023/06/23 03:30:34;;;;;;;9.30;7.05;;;23.90;99.90;;;;;;5120020;27;20206;-74
2023/06/23 03:33:04;;;;;;;7.65;6.82;;;23.90;99.90;;;;;;5117274;27;20194;-76
2023/06/23 03:35:38;;;;;;;7.28;6.57;;;23.90;99.90;;;;;;5103449;27;20736;-75
2023/06/23 03:38:11;;;;;;;8.05;6.95;;;24.00;99.90;;;;;;5103146;27;20235;-76
2023/06/23 03:40:44;;;;;;;7.05;6.40;;;24.00;99.90;;;;;;5103375;27;20759;-76
2023/06/23 03:43:16;;;;;;;7.93;6.97;;;23.90;99.90;;;;;;5097881;27;20232;-76
2023/06/23 03:45:45;;;;;;;7.95;6.95;;;23.80;99.90;;;;;;5103266;27;20213;-75
2023/06/23 03:48:14;;;;;;;9.23;8.32;;;23.70;99.90;;;;;;5101241;27;20229;-76
2023/06/23 03:50:44;;;;;;;8.48;7.03;;;23.60;99.90;;;;;;5101090;27;20283;-76
2023/06/23 03:53:14;;;;;;;8.13;7.25;;;23.50;99.90;;;;;;5103958;27;20288;-76
2023/06/23 03:55:42;;;;;;;7.82;7.13;;;23.60;99.90;;;;;;5103747;27;20296;-75
2023/06/23 03:58:11;;;;;;;7.20;6.50;;;23.70;99.90;;;;;;5102734;27;20279;-76
2023/06/23 04:00:41;;;;;;;8.07;7.38;;;23.80;99.90;;;;;;5098952;27;20373;-76
2023/06/23 04:03:10;;;;;;;8.95;7.93;;;24.00;99.90;;;;;;5100878;27;20229;-78
2023/06/23 04:05:39;;;;;;;8.77;7.75;;;24.10;99.90;;;;;;5099747;27;20320;-78
2023/06/23 04:08:08;;;;;;;12.50;9.73;;;24.20;99.90;;;;;;5101137;27;20208;-77
2023/06/23 04:10:38;;;;;;;9.13;8.30;;;24.00;99.90;;;;;;5102415;27;20288;-77
2023/06/23 04:13:07;;;;;;;8.80;7.93;;;23.90;99.90;;;;;;5100021;27;20290;-77
2023/06/23 04:15:38;;;;;;;9.80;7.93;;;23.90;99.90;;;;;;5100870;27;20633;-77
2023/06/23 04:18:08;;;;;;;9.70;8.23;;;23.90;99.90;;;;;;5098133;27;20685;-78
2023/06/23 04:20:37;;;;;;;12.82;8.85;;;23.90;99.90;;;;;;5102355;27;20939;-77
2023/06/23 04:23:06;;;;;;;11.10;10.00;;;23.90;99.90;;;;;;5101415;27;20630;-77
2023/06/23 04:25:33;;;;;;;12.05;8.70;;;23.90;99.90;;;;;;5100113;27;20327;-77
2023/06/23 04:28:05;;;;;;;9.32;8.30;;;23.90;99.90;;;;;;5104283;27;20232;-77
2023/06/23 04:30:35;;;;;;;9.60;8.02;;;24.10;99.90;;;;;;5100857;27;20794;-76
2023/06/23 04:33:02;;;;;;;8.00;7.20;;;24.30;99.90;;;;;;5099456;27;20296;-78
2023/06/23 04:35:29;;;;;;;9.40;8.50;;;24.40;99.90;;;;;;5103959;27;20202;-77
2023/06/23 04:38:02;;;;;;;12.95;7.82;;;24.50;99.90;;;;;;5102030;27;20228;-77
2023/06/23 04:40:34;;;;;;;9.50;8.48;;;24.40;99.90;;;;;;5095882;27;20221;-78
2023/06/23 04:43:09;;;;;;;10.45;8.10;;;24.40;99.90;;;;;;5103145;27;20290;-76
2023/06/23 04:45:41;;;;;;;8.73;7.82;;;24.40;99.90;;;;;;5101780;27;20227;-77
2023/06/23 04:48:12;;;;;;;8.32;7.07;;;24.40;99.90;;;;;;5098348;27;20860;-78
2023/06/23 04:50:42;;;;;;;7.72;6.95;;;24.50;99.90;;;;;;5096179;27;20208;-78
2023/06/23 04:53:19;;;;;;;9.23;8.13;;;24.50;99.90;;;;;;5097842;27;20636;-78
2023/06/23 04:55:52;;;;;;;11.13;8.43;;;24.50;99.90;;;;;;5099415;27;20283;-77
2023/06/23 04:58:22;;;;;;;9.43;8.52;;;24.30;99.90;;;;;;5101779;27;20218;-77
2023/06/23 05:00:51;;;;;;;10.07;8.00;;;24.20;99.90;;;;;;5098094;27;20224;-76
2023/06/23 05:03:21;;;;;;;9.98;8.40;;;24.20;99.90;;;;;;5102542;27;20722;-76
2023/06/23 05:05:52;;;;;;;8.35;7.50;;;24.20;99.90;;;;;;5097573;27;20702;-76
2023/06/23 05:08:21;;;;;;;8.55;7.70;;;24.20;99.90;;;;;;5099234;27;20632;-77
2023/06/23 05:10:48;;;;;;;8.57;7.20;;;24.40;99.90;;;;;;5101289;27;20232;-77
2023/06/23 05:13:17;;;;;;;10.18;7.65;;;24.60;99.90;;;;;;5101928;27;20262;-77
2023/06/23 05:15:47;;;;;;;7.38;6.68;;;24.70;99.90;;;;;;5095015;27;20196;-76
2023/06/23 05:18:17;;;;;;;7.72;7.03;;;24.70;99.90;;;;;;5102514;27;20227;-77
2023/06/23 05:20:47;;;;;;;7.45;6.75;;;24.70;99.90;;;;;;5106131;27;20209;-78
2023/06/23 05:23:18;;;;;;;9.40;8.25;;;24.60;99.90;;;;;;5108413;27;20204;-76
2023/06/23 05:25:47;;;;;;;8.75;7.75;;;24.30;99.90;;;;;;5107339;27;20213;-77
2023/06/23 05:28:17;;;;;;;8.10;7.30;;;24.10;99.90;;;;;;5100133;27;20201;-79
2023/06/23 05:30:46;;;;;;;8.60;7.25;;;24.00;99.90;;;;;;5095081;27;20200;-78
2023/06/23 05:33:15;;;;;;;9.80;7.65;;;24.10;99.90;;;;;;5101158;27;20236;-77
2023/06/23 05:35:44;;;;;;;8.80;7.70;;;24.30;99.90;;;;;;5106652;27;20229;-77
2023/06/23 05:38:13;;;;;;;7.63;6.82;;;24.40;99.90;;;;;;5097033;27;20197;-78
2023/06/23 05:40:40;;;;;;;7.82;7.03;;;24.50;99.90;;;;;;5103596;27;20295;-78
2023/06/23 05:43:07;;;;;;;8.52;7.30;;;24.50;99.90;;;;;;5102493;27;20223;-77
2023/06/23 05:45:34;;;;;;;9.20;7.93;;;24.60;99.90;;;;;;5102721;27;20221;-77
2023/06/23 05:48:07;;;;;;;8.38;7.57;;;24.70;99.90;;;;;;5104531;27;20232;-77
2023/06/23 05:50:36;;;;;;;8.70;7.80;;;24.70;99.90;;;;;;5100852;27;20296;-77
2023/06/23 05:53:07;;;;;;;7.70;7.05;;;24.80;99.90;;;;;;5103839;27;20356;-77
2023/06/23 05:55:38;;;;;;;8.25;7.45;;;24.80;99.90;;;;;;5104749;27;20248;-78
2023/06/23 05:58:09;;;;;;;9.75;8.75;;;24.90;99.90;;;;;;5104739;27;20292;-78
2023/06/23 06:00:43;;;;;;;7.78;7.07;;;25.00;99.90;;;;;;5104542;27;20617;-78
2023/06/23 06:03:16;;;;;;;9.15;8.18;;;25.20;99.90;;;;;;5100211;27;20228;-78
2023/06/23 06:05:48;;;;;;;8.20;7.40;;;25.30;99.90;;;;;;5100473;27;20329;-78
2023/06/23 06:08:16;;;;;;;8.50;7.65;;;25.40;99.90;;;;;;5103858;27;20227;-77
2023/06/23 06:10:44;;;;;;;11.10;9.13;;;25.50;99.90;;;;;;5102495;27;20193;-77
2023/06/23 06:13:13;;;;;;;9.43;8.40;;;25.40;99.90;;;;;;5095658;27;20602;-79
2023/06/23 06:15:40;;;;;;;8.75;7.85;;;25.10;99.90;;;;;;5102399;28;20247;-77
2023/06/23 06:18:11;;;;;;;9.32;7.85;;;24.80;99.90;;;;;;5104832;27;20359;-78
2023/06/23 06:20:42;;;;;;;7.68;6.97;;;24.70;99.90;;;;;;5098424;27;20200;-77
2023/06/23 06:23:10;;;;;;;10.38;7.38;;;24.60;99.90;;;;;;5104633;28;20204;-78
2023/06/23 06:25:39;;;;;;;7.40;6.63;;;24.60;99.90;;;;;;5100385;28;20677;-76
2023/06/23 06:28:12;;;;;;;8.55;5.82;;;24.70;99.90;;;;;;5100611;28;20211;-76
2023/06/23 06:30:41;;;;;;;5.50;5.00;;;24.70;99.90;;;;;;5100486;27;20730;-76
2023/06/23 06:33:09;;;;;;;4.75;4.35;;;24.70;99.90;;;;;;5101334;28;20202;-77
2023/06/23 06:35:41;;;;;;;4.82;4.32;;;24.70;99.90;;;;;;5099339;27;20254;-77
2023/06/23 06:38:08;;;;;;;4.97;4.07;;;24.80;99.90;;;;;;5104986;27;20638;-76
2023/06/23 06:40:37;;;;;;;4.65;3.80;;;24.90;99.90;;;;;;5110293;27;20228;-76
2023/06/23 06:43:05;;;;;;;4.40;3.50;;;25.10;99.90;;;;;;5101980;27;20193;-76
2023/06/23 06:45:32;;;;;;;3.90;3.05;;;25.20;99.90;;;;;;5104757;27;20959;-76
2023/06/23 06:48:01;;;;;;;3.20;2.90;;;25.30;99.90;;;;;;5103245;27;20203;-78
2023/06/23 06:50:28;;;;;;;4.47;3.20;;;25.40;99.90;;;;;;5097342;27;20257;-77
2023/06/23 06:52:57;;;;;;;5.32;3.78;;;25.50;99.90;;;;;;5095875;27;20703;-76
2023/06/23 06:55:25;;;;;;;3.90;3.22;;;25.60;99.90;;;;;;5095531;27;20427;-76
2023/06/23 06:57:53;;;;;;;4.03;2.92;;;26.20;99.90;;;;;;5097649;27;20279;-77
2023/06/23 07:00:23;;;;;;;3.38;2.97;;;26.60;99.90;;;;;;5098918;27;20246;-76
2023/06/23 07:02:50;;;;;;;4.80;3.35;;;26.80;99.90;;;;;;5100171;27;20197;-77
2023/06/23 07:05:18;;;;;;;6.35;3.38;;;27.20;99.90;;;;;;5098698;27;20213;-77
2023/06/23 07:07:46;;;;;;;4.13;2.92;;;27.50;99.90;;;;;;5097787;27;20269;-78
2023/06/23 07:10:14;;;;;;;4.07;3.13;;;27.40;99.90;;;;;;5100488;27;20220;-78
2023/06/23 07:12:41;;;;;;;5.70;2.90;;;27.00;99.90;;;;;;5101579;27;20292;-78
2023/06/23 07:15:08;;;;;;;5.20;2.40;;;26.80;99.90;;;;;;5103837;27;20279;-80
2023/06/23 07:17:35;;;;;;;2.63;2.20;;;26.70;99.90;;;;;;5113255;27;20292;-77
2023/06/23 07:20:02;;;;;;;5.68;2.90;;;26.60;99.90;;;;;;5100030;27;20997;-78
2023/06/23 07:22:30;;;;;;;3.85;2.80;;;26.40;99.90;;;;;;5093741;27;20232;-78
2023/06/23 07:24:56;;;;;;;3.55;2.72;;;26.40;99.90;;;;;;5096215;27;20280;-77
2023/06/23 07:27:26;;;;;;;4.80;2.75;;;26.20;99.90;;;;;;5094123;27;20254;-77
2023/06/23 07:29:53;;;;;;;2.75;2.22;;;26.10;99.90;;;;;;5099001;27;20308;-77
2023/06/23 07:32:20;;;;;;;3.63;2.20;;;25.80;99.90;;;;;;5092796;27;20823;-77
2023/06/23 07:34:47;;;;;;;4.40;2.40;;;25.50;99.90;;;;;;5090867;27;20228;-77
2023/06/23 07:37:14;;;;;;;3.53;2.40;;;25.30;99.90;;;;;;5095964;27;20229;-78
2023/06/23 07:39:41;;;;;;;4.15;2.47;;;25.30;99.90;;;;;;5096612;27;20706;-77
2023/06/23 07:42:09;;;;;;;3.92;3.00;;;25.20;99.90;;;;;;5097980;27;20252;-77
2023/06/23 07:44:38;;;;;;;4.45;2.78;;;25.40;99.90;;;;;;5094690;27;21068;-77
2023/06/23 07:47:06;;;;;;;4.82;2.72;;;25.70;99.90;;;;;;5094174;27;20298;-76
2023/06/23 07:49:33;;;;;;;3.75;2.47;;;25.90;99.90;;;;;;5093612;27;20479;-77
2023/06/23 07:52:00;;;;;;;3.17;2.35;;;26.00;99.90;;;;;;5094549;27;20253;-77
2023/06/23 07:54:28;;;;;;;3.85;2.90;;;26.20;99.90;;;;;;5093713;27;20208;-75
2023/06/23 07:56:55;;;;;;;4.55;2.55;;;26.10;99.90;;;;;;5093762;27;20220;-75
2023/06/23 07:59:22;;;;;;;4.13;2.45;;;26.10;99.90;;;;;;5094579;27;20305;-75
2023/06/23 08:01:50;;;;;;;3.90;2.65;;;26.40;99.90;;;;;;5094992;27;20284;-75
2023/06/23 08:04:17;;;;;;;5.55;3.08;;;26.90;99.90;;;;;;5094952;27;20236;-75
2023/06/23 08:06:44;;;;;;;4.68;3.10;;;27.20;99.90;;;;;;5094506;27;20224;-76
2023/06/23 08:09:11;;;;;;;3.65;3.10;;;27.40;99.90;;;;;;5096819;27;20636;-74
2023/06/23 08:11:39;;;;;;;3.20;2.90;;;27.40;99.90;;;;;;5095393;27;20205;-76
2023/06/23 08:14:06;;;;;;;4.18;3.05;;;27.20;99.90;;;;;;5098111;27;20262;-77
2023/06/23 08:16:33;;;;;;;3.88;3.03;;;26.80;99.90;;;;;;5095061;27;20286;-77
2023/06/23 08:19:02;;;;;;;5.78;4.18;;;26.40;99.90;;;;;;5095223;27;20219;-76
2023/06/23 08:21:29;;;;;;;6.50;3.65;;;26.10;99.90;;;;;;5095661;27;20288;-76
2023/06/23 08:23:55;;;;;;;7.40;4.50;;;25.70;99.90;;;;;;5095701;27;20228;-76
2023/06/23 08:26:22;;;;;;;7.05;4.15;;;25.50;99.90;;;;;;5094616;27;20217;-77
2023/06/23 08:28:49;;;;;;;5.40;3.58;;;25.20;99.90;;;;;;5096563;27;20252;-78
2023/06/23 08:31:17;;;;;;;4.85;3.75;;;25.00;99.90;;;;;;5094123;27;20193;-77
2023/06/23 08:33:44;;;;;;;4.85;3.72;;;24.90;99.90;;;;;;5098688;27;20211;-77
2023/06/23 08:36:12;;;;;;;4.80;3.65;;;24.90;99.90;;;;;;5099683;27;20273;-76
2023/06/23 08:38:39;;;;;;;5.93;3.15;;;24.80;99.90;;;;;;5098850;27;20657;-76
2023/06/23 08:41:08;;;;;;;4.65;3.47;;;24.90;99.90;;;;;;5102828;27;20197;-76
2023/06/23 08:43:36;;;;;;;4.85;3.60;;;24.90;99.90;;;;;;5096286;27;20701;-76
2023/06/23 08:46:06;;;;;;;4.47;3.85;;;24.80;99.90;;;;;;5092968;27;20315;-77
2023/06/23 08:48:33;;;;;;;5.32;3.20;;;24.70;99.90;;;;;;5090031;27;20735;-77
2023/06/23 08:51:01;;;;;;;3.78;3.20;;;24.60;99.90;;;;;;5092733;27;20233;-77
2023/06/23 08:53:30;;;;;;;5.82;3.45;;;24.60;99.90;;;;;;5087279;27;20229;-77
2023/06/23 08:55:57;;;;;;;3.10;2.80;;;24.60;99.90;;;;;;5089145;27;20197;-76
2023/06/23 08:58:26;;;;;;;3.75;2.90;;;24.80;99.90;;;;;;5089967;27;20312;-75
2023/06/23 09:00:54;;;;;;;3.38;2.75;;;25.00;99.90;;;;;;5091748;27;20294;-74
2023/06/23 09:03:22;;;;;;;3.05;2.47;;;25.30;99.90;;;;;;5095644;27;20233;-77
2023/06/23 09:05:49;;;;;;;3.28;2.40;;;25.40;99.90;;;;;;5092863;27;20617;-75
2023/06/23 09:08:16;;;;;;;3.53;2.28;;;25.50;99.90;;;;;;5103293;27;20204;-77
2023/06/23 09:10:45;;;;;;;2.78;2.42;;;25.60;99.90;;;;;;5100973;27;20239;-76
2023/06/23 09:13:22;;;;;;;2.60;2.17;;;25.60;99.90;;;;;;5089231;27;20300;-76
2023/06/23 09:15:50;;;;;;;2.25;2.05;;;25.80;99.90;;;;;;5091154;27;20193;-76
2023/06/23 09:18:18;;;;;;;2.88;2.15;;;25.90;99.90;;;;;;5085194;27;20228;-75
2023/06/23 09:20:47;;;;;;;3.08;1.80;;;26.10;99.90;;;;;;5089076;27;20204;-75
2023/06/23 09:23:15;;;;;;;2.00;1.75;;;26.10;99.90;;;;;;5090676;27;20287;-75
2023/06/23 09:25:47;;;;;;;3.35;2.20;;;26.10;99.90;;;;;;5089029;27;20227;-78
2023/06/23 09:28:26;;;;;;;3.08;2.00;;;26.20;99.90;;;;;;5091098;27;20299;-75
2023/06/23 09:30:54;;;;;;;2.95;2.00;;;26.20;99.90;;;;;;5086333;27;20293;-77
2023/06/23 09:33:22;;;;;;;2.70;1.90;;;26.40;99.90;;;;;;5087339;27;20286;-76
2023/06/23 09:35:49;;;;;;;2.40;2.10;;;26.60;99.90;;;;;;5092705;27;20224;-77
2023/06/23 09:38:21;;;;;;;2.45;1.80;;;26.70;99.90;;;;;;5089518;27;20854;-78
2023/06/23 09:41:00;;;;;;;2.28;2.00;;;26.90;99.90;;;;;;5086732;27;20265;-76
2023/06/23 09:43:27;;;;;;;4.43;2.17;;;27.00;99.90;;;;;;5086369;27;20202;-77
2023/06/23 09:45:54;;;;;;;2.53;2.13;;;27.10;99.90;;;;;;5088881;27;20327;-77
2023/06/23 09:48:21;;;;;;;4.95;1.85;;;27.20;99.90;;;;;;5088764;27;20248;-78
2023/06/23 09:51:00;;;;;;;4.15;2.13;;;27.30;99.90;;;;;;5084992;27;20764;-78
2023/06/23 09:53:30;;;;;;;3.80;2.55;;;27.50;99.90;;;;;;5086022;27;20225;-78
2023/06/23 09:55:59;;;;;;;3.53;2.33;;;27.80;99.90;;;;;;5085501;28;20671;-77
2023/06/23 09:58:31;;;;;;;3.92;2.45;;;28.00;99.90;;;;;;5088016;27;20226;-78
2023/06/23 10:01:02;;;;;;;2.97;2.35;;;28.20;99.90;;;;;;5087624;27;20273;-77
2023/06/23 10:03:30;;;;;;;6.82;2.60;;;28.20;99.90;;;;;;5088382;27;20224;-77
2023/06/23 10:05:57;;;;;;;3.75;2.25;;;27.90;99.90;;;;;;5088206;27;20213;-77
2023/06/23 10:08:26;;;;;;;2.95;2.10;;;27.70;99.90;;;;;;5087527;27;20280;-77
2023/06/23 10:10:52;;;;;;;3.47;2.60;;;27.50;99.90;;;;;;5089113;27;20219;-78
2023/06/23 10:13:22;;;;;;;3.60;2.10;;;27.40;99.90;;;;;;5088012;27;20532;-77
2023/06/23 10:15:50;;;;;;;4.03;2.13;;;27.30;99.90;;;;;;5086103;28;20283;-77
2023/06/23 10:18:17;;;;;;;4.70;2.80;;;27.30;99.90;;;;;;5082749;28;20744;-77
2023/06/23 10:20:45;;;;;;;2.88;2.10;;;27.40;99.90;;;;;;5085511;28;20321;-77
2023/06/23 10:23:14;;;;;;;3.72;1.92;;;27.40;99.90;;;;;;5091051;27;20339;-79
2023/06/23 10:25:43;;;;;;;3.42;1.85;;;27.50;99.90;;;;;;5094330;28;20215;-77
2023/06/23 10:28:13;;;;;;;3.33;1.90;;;27.60;99.90;;;;;;5093190;28;20280;-77
2023/06/23 10:30:44;;;;;;;1.83;1.42;;;27.50;99.90;;;;;;5087287;28;20209;-78
2023/06/23 10:33:18;;;;;;;3.55;1.67;;;27.40;99.90;;;;;;5094676;28;20226;-77
2023/06/23 10:35:47;;;;;;;1.52;1.05;;;27.40;99.90;;;;;;5097216;28;20257;-76
2023/06/23 10:38:21;;;;;;;4.55;1.52;;;27.40;99.90;;;;;;5097982;28;20658;-75
2023/06/23 10:40:51;;;;;;;1.42;1.30;;;27.40;99.90;;;;;;5093071;28;22141;-74
2023/06/23 10:43:20;;;;;;;3.85;1.52;;;27.40;99.90;;;;;;5093923;28;20285;-76
2023/06/23 10:45:49;;;;;;;3.20;1.40;;;27.60;99.90;;;;;;5087975;28;20296;-75
2023/06/23 10:48:18;;;;;;;1.83;1.42;;;27.60;99.90;;;;;;5092430;28;20212;-76
2023/06/23 10:50:48;;;;;;;1.77;1.50;;;27.70;99.90;;;;;;5092958;28;20300;-77
2023/06/23 10:53:20;;;;;;;1.73;1.30;;;27.70;99.90;;;;;;5095129;28;20204;-75
2023/06/23 10:55:48;;;;;;;3.40;1.60;;;27.80;99.90;;;;;;5096159;28;20444;-77
2023/06/23 10:58:17;;;;;;;2.00;1.42;;;28.00;99.90;;;;;;5089780;28;20205;-75
2023/06/23 11:01:00;;;;;;;4.13;1.70;;;28.20;99.90;;;;;;5093385;28;20207;-76
2023/06/23 11:03:33;;;;;;;2.65;1.70;;;28.40;99.90;;;;;;5108573;28;20201;-78
2023/06/23 11:06:03;;;;;;;1.92;1.60;;;28.50;99.90;;;;;;5101931;28;20200;-77
2023/06/23 11:08:33;;;;;;;1.25;1.15;;;28.70;99.90;;;;;;5094372;28;20755;-75
2023/06/23 11:11:03;;;;;;;2.17;1.60;;;28.90;99.90;;;;;;5095155;28;20232;-78
2023/06/23 11:13:44;;;;;;;2.15;1.30;;;29.30;99.90;;;;;;5097962;28;20317;-77
2023/06/23 11:16:17;;;;;;;1.20;1.10;;;29.60;99.90;;;;;;5096629;28;20209;-78
2023/06/23 11:18:52;;;;;;;1.48;1.20;;;29.90;99.90;;;;;;5100601;28;20223;-75
2023/06/23 11:21:20;;;;;;;3.60;1.10;;;30.20;99.90;;;;;;5094906;28;20283;-77
2023/06/23 11:24:15;;;;;;;1.65;1.48;;;30.30;99.90;;;;;;5101397;27;20205;-78
2023/06/23 11:27:01;;;;;;;1.02;0.93;;;30.50;99.90;;;;;;5092905;27;20660;-77
2023/06/23 11:29:28;;;;;;;3.83;1.45;;;30.50;99.90;;;;;;5099919;27;20216;-78
2023/06/23 11:32:19;;;;;;;1.42;1.08;;;30.40;99.90;;;;;;5104506;27;20233;-77
2023/06/23 11:34:54;;;;;;;1.83;1.30;;;30.20;99.90;;;;;;5100161;27;20235;-77
2023/06/23 11:37:22;;;;;;;1.13;0.98;;;30.20;99.90;;;;;;5096594;27;20241;-77
2023/06/23 11:39:52;;;;;;;1.30;1.20;;;30.20;99.90;;;;;;5104412;27;20212;-77
2023/06/23 11:42:19;;;;;;;3.28;1.10;;;30.20;99.90;;;;;;5105187;27;20272;-78
2023/06/23 11:44:46;;;;;;;2.15;1.10;;;30.20;99.90;;;;;;5101560;27;20234;-78
2023/06/23 11:47:14;;;;;;;1.50;1.10;;;30.20;99.90;;;;;;5097145;27;20209;-77
2023/06/23 11:49:41;;;;;;;0.70;0.70;;;30.10;99.90;;;;;;5100138;27;20228;-79
2023/06/23 11:52:09;;;;;;;1.23;0.90;;;29.90;99.90;;;;;;5098965;27;20293;-79
2023/06/23 11:54:38;;;;;;;1.38;1.15;;;29.60;99.90;;;;;;5105805;27;20232;-79
2023/06/23 11:57:06;;;;;;;1.83;1.05;;;29.40;99.90;;;;;;5104262;27;20200;-78
2023/06/23 11:59:37;;;;;;;0.80;0.80;;;29.30;99.90;;;;;;5097984;27;20216;-79
2023/06/23 12:02:05;;;;;;;1.65;1.10;;;29.30;99.90;;;;;;5100537;27;20275;-78
2023/06/23 12:04:33;;;;;;;1.00;0.90;;;29.30;99.90;;;;;;5108620;27;20621;-78
2023/06/23 12:07:03;;;;;;;1.00;0.90;;;29.40;99.90;;;;;;5104012;27;20225;-78
2023/06/23 12:09:31;;;;;;;0.90;0.90;;;29.40;99.90;;;;;;5103908;27;20228;-78
2023/06/23 12:11:59;;;;;;;1.05;0.95;;;29.60;99.90;;;;;;5097416;27;20193;-79
2023/06/23 12:14:30;;;;;;;1.17;0.90;;;29.60;99.90;;;;;;5104400;27;20208;-78
2023/06/23 12:17:07;;;;;;;1.92;1.15;;;29.70;99.90;;;;;;5103038;27;20249;-78
2023/06/23 12:19:36;;;;;;;2.75;0.90;;;29.70;99.90;;;;;;5099645;27;20228;-78
2023/06/23 12:22:04;;;;;;;1.40;1.30;;;29.80;99.90;;;;;;5106262;27;20197;-79
2023/06/23 12:24:31;;;;;;;0.80;0.80;;;30.00;99.90;;;;;;5106829;27;20287;-79
2023/06/23 12:26:59;;;;;;;1.05;0.80;;;30.40;99.90;;;;;;5112850;27;20219;-79
2023/06/23 12:29:27;;;;;;;1.27;1.15;;;30.90;99.90;;;;;;5112515;27;20296;-78
2023/06/23 12:31:55;;;;;;;0.85;0.85;;;31.00;99.90;;;;;;5105074;27;20205;-79
2023/06/23 12:34:22;;;;;;;1.25;1.00;;;30.70;99.90;;;;;;5097811;27;20668;-78
2023/06/23 12:36:51;;;;;;;0.90;0.90;;;30.40;99.90;;;;;;5104642;27;20199;-79
2023/06/23 12:39:22;;;;;;;1.25;1.15;;;30.20;99.90;;;;;;5104079;27;20216;-78
2023/06/23 12:41:50;;;;;;;1.33;1.08;;;30.00;99.90;;;;;;5103532;27;20201;-79
2023/06/23 12:44:19;;;;;;;1.05;0.95;;;29.90;99.90;;;;;;5102339;27;20197;-78
2023/06/23 12:46:48;;;;;;;1.25;1.00;;;29.70;99.90;;;;;;5105359;27;20741;-78
2023/06/23 12:49:15;;;;;;;2.30;1.08;;;29.50;99.90;;;;;;5096675;27;20225;-77
2023/06/23 12:51:42;;;;;;;1.00;0.90;;;29.50;99.90;;;;;;5099746;27;20663;-78
2023/06/23 12:54:11;;;;;;;1.20;1.10;;;29.60;99.90;;;;;;5106684;27;20237;-78
2023/06/23 12:56:38;;;;;;;1.10;1.00;;;29.70;99.90;;;;;;5105448;27;20208;-79
2023/06/23 12:59:05;;;;;;;1.73;1.25;;;30.00;99.90;;;;;;5121239;27;20241;-79